sensor_id;sensor_type;location;lat;lon;timestamp;P1;durP1;ratioP1;P2;durP2;ratioP2
18224;SDS011;9237;48.590;8.854;2023-06-19T00:01:05;0.50;;;0.50;;
18224;SDS011;9237;48.590;8.854;2023-06-19T00:03:32;0.60;;;0.60;;
18224;SDS011;9237;48.590;8.854;2023-06-19T00:05:59;0.40;;;0.40;;
18224;SDS011;9237;48.590;8.854;2023-06-19T00:08:25;0.50;;;0.50;;
18224;SDS011;9237;48.590;8.854;2023-06-19T00:10:53;0.40;;;0.40;;
18224;SDS011;9237;48.590;8.854;2023-06-19T00:13:20;0.50;;;0.50;;
18224;SDS011;9237;48.590;8.854;2023-06-19T00:15:47;0.50;;;0.50;;
18224;SDS011;9237;48.590;8.854;2023-06-19T00:18:14;0.50;;;0.50;;
18224;SDS011;9237;48.590;8.854;2023-06-19T00:20:41;0.50;;;0.50;;
18224;SDS011;9237;48.590;8.854;2023-06-19T00:23:11;0.50;;;0.50;;
18224;SDS011;9237;48.590;8.854;2023-06-19T00:25:39;0.50;;;0.50;;
18224;SDS011;9237;48.590;8.854;2023-06-19T00:28:08;0.50;;;0.50;;
18224;SDS011;9237;48.590;8.854;2023-06-19T00:30:39;0.50;;;0.50;;
18224;SDS011;9237;48.590;8.854;2023-06-19T00:33:06;0.50;;;0.50;;
18224;SDS011;9237;48.590;8.854;2023-06-19T00:35:33;0.60;;;0.60;;
18224;SDS011;9237;48.590;8.854;2023-06-19T00:38:00;0.60;;;0.60;;
18224;SDS011;9237;48.590;8.854;2023-06-19T00:40:28;0.50;;;0.50;;
18224;SDS011;9237;48.590;8.854;2023-06-19T00:42:56;0.53;;;0.53;;
18224;SDS011;9237;48.590;8.854;2023-06-19T00:45:25;0.50;;;0.50;;
18224;SDS011;9237;48.590;8.854;2023-06-19T00:47:52;0.50;;;0.50;;
18224;SDS011;9237;48.590;8.854;2023-06-19T00:50:20;0.60;;;0.60;;
18224;SDS011;9237;48.590;8.854;2023-06-19T00:52:47;0.50;;;0.50;;
18224;SDS011;9237;48.590;8.854;2023-06-19T00:55:14;0.60;;;0.60;;
18224;SDS011;9237;48.590;8.854;2023-06-19T00:57:42;0.60;;;0.60;;
18224;SDS011;9237;48.590;8.854;2023-06-19T01:00:10;0.50;;;0.50;;
18224;SDS011;9237;48.590;8.854;2023-06-19T01:02:39;0.60;;;0.60;;
18224;SDS011;9237;48.590;8.854;2023-06-19T01:05:06;0.50;;;0.50;;
18224;SDS011;9237;48.590;8.854;2023-06-19T01:07:34;0.60;;;0.60;;
18224;SDS011;9237;48.590;8.854;2023-06-19T01:10:09;0.50;;;0.50;;
18224;SDS011;9237;48.590;8.854;2023-06-19T01:12:44;0.50;;;0.50;;
18224;SDS011;9237;48.590;8.854;2023-06-19T01:15:22;0.50;;;0.50;;
18224;SDS011;9237;48.590;8.854;2023-06-19T01:17:50;0.60;;;0.60;;
18224;SDS011;9237;48.590;8.854;2023-06-19T01:20:18;0.50;;;0.50;;
18224;SDS011;9237;48.590;8.854;2023-06-19T01:22:46;0.50;;;0.50;;
18224;SDS011;9237;48.590;8.854;2023-06-19T01:25:13;0.57;;;0.57;;
18224;SDS011;9237;48.590;8.854;2023-06-19T01:27:40;0.50;;;0.50;;
18224;SDS011;9237;48.590;8.854;2023-06-19T01:30:08;0.60;;;0.60;;
18224;SDS011;9237;48.590;8.854;2023-06-19T01:32:38;0.50;;;0.50;;
18224;SDS011;9237;48.590;8.854;2023-06-19T01:35:10;0.53;;;0.53;;
18224;SDS011;9237;48.590;8.854;2023-06-19T01:37:39;0.50;;;0.50;;
18224;SDS011;9237;48.590;8.854;2023-06-19T01:40:10;0.50;;;0.50;;
18224;SDS011;9237;48.590;8.854;2023-06-19T01:42:38;0.50;;;0.50;;
18224;SDS011;9237;48.590;8.854;2023-06-19T01:45:07;0.50;;;0.50;;
18224;SDS011;9237;48.590;8.854;2023-06-19T01:47:35;0.50;;;0.50;;
18224;SDS011;9237;48.590;8.854;2023-06-19T01:50:02;0.57;;;0.57;;
18224;SDS011;9237;48.590;8.854;2023-06-19T01:52:29;0.50;;;0.50;;
18224;SDS011;9237;48.590;8.854;2023-06-19T01:54:56;0.50;;;0.50;;
18224;SDS011;9237;48.590;8.854;2023-06-19T01:57:24;0.50;;;0.50;;
18224;SDS011;9237;48.590;8.854;2023-06-19T01:59:51;0.50;;;0.50;;
18224;SDS011;9237;48.590;8.854;2023-06-19T02:02:17;0.50;;;0.50;;
18224;SDS011;9237;48.590;8.854;2023-06-19T02:04:44;0.50;;;0.50;;
18224;SDS011;9237;48.590;8.854;2023-06-19T02:07:11;0.50;;;0.50;;
18224;SDS011;9237;48.590;8.854;2023-06-19T02:09:38;0.50;;;0.50;;
18224;SDS011;9237;48.590;8.854;2023-06-19T02:12:06;0.50;;;0.50;;
18224;SDS011;9237;48.590;8.854;2023-06-19T02:14:35;0.50;;;0.50;;
18224;SDS011;9237;48.590;8.854;2023-06-19T02:17:02;0.57;;;0.57;;
18224;SDS011;9237;48.590;8.854;2023-06-19T02:19:28;0.50;;;0.50;;
18224;SDS011;9237;48.590;8.854;2023-06-19T02:21:55;0.50;;;0.50;;
18224;SDS011;9237;48.590;8.854;2023-06-19T02:24:22;0.50;;;0.50;;
18224;SDS011;9237;48.590;8.854;2023-06-19T02:26:49;0.50;;;0.50;;
18224;SDS011;9237;48.590;8.854;2023-06-19T02:29:16;0.50;;;0.50;;
18224;SDS011;9237;48.590;8.854;2023-06-19T02:31:45;0.50;;;0.50;;
18224;SDS011;9237;48.590;8.854;2023-06-19T02:34:12;0.50;;;0.50;;
18224;SDS011;9237;48.590;8.854;2023-06-19T02:36:39;0.50;;;0.50;;
18224;SDS011;9237;48.590;8.854;2023-06-19T02:39:05;0.57;;;0.57;;
18224;SDS011;9237;48.590;8.854;2023-06-19T02:41:32;0.50;;;0.50;;
18224;SDS011;9237;48.590;8.854;2023-06-19T02:43:59;0.50;;;0.50;;
18224;SDS011;9237;48.590;8.854;2023-06-19T02:46:26;0.60;;;0.60;;
18224;SDS011;9237;48.590;8.854;2023-06-19T02:48:54;0.60;;;0.60;;
18224;SDS011;9237;48.590;8.854;2023-06-19T02:51:21;0.60;;;0.60;;
18224;SDS011;9237;48.590;8.854;2023-06-19T02:53:47;0.60;;;0.60;;
18224;SDS011;9237;48.590;8.854;2023-06-19T02:56:14;0.57;;;0.57;;
18224;SDS011;9237;48.590;8.854;2023-06-19T02:58:41;0.60;;;0.60;;
18224;SDS011;9237;48.590;8.854;2023-06-19T03:01:08;0.60;;;0.60;;
18224;SDS011;9237;48.590;8.854;2023-06-19T03:03:35;0.50;;;0.50;;
18224;SDS011;9237;48.590;8.854;2023-06-19T03:06:04;0.60;;;0.60;;
18224;SDS011;9237;48.590;8.854;2023-06-19T03:08:32;0.60;;;0.60;;
18224;SDS011;9237;48.590;8.854;2023-06-19T03:10:59;0.50;;;0.50;;
18224;SDS011;9237;48.590;8.854;2023-06-19T03:13:29;0.50;;;0.50;;
18224;SDS011;9237;48.590;8.854;2023-06-19T03:15:55;0.60;;;0.60;;
18224;SDS011;9237;48.590;8.854;2023-06-19T03:18:22;0.60;;;0.60;;
18224;SDS011;9237;48.590;8.854;2023-06-19T03:20:49;0.60;;;0.60;;
18224;SDS011;9237;48.590;8.854;2023-06-19T03:23:17;0.60;;;0.60;;
18224;SDS011;9237;48.590;8.854;2023-06-19T03:25:44;0.60;;;0.60;;
18224;SDS011;9237;48.590;8.854;2023-06-19T03:28:10;0.60;;;0.60;;
18224;SDS011;9237;48.590;8.854;2023-06-19T03:30:37;0.60;;;0.60;;
18224;SDS011;9237;48.590;8.854;2023-06-19T03:33:04;0.60;;;0.60;;
18224;SDS011;9237;48.590;8.854;2023-06-19T03:35:31;0.60;;;0.60;;
18224;SDS011;9237;48.590;8.854;2023-06-19T03:37:57;0.60;;;0.60;;
18224;SDS011;9237;48.590;8.854;2023-06-19T03:40:26;0.60;;;0.60;;
18224;SDS011;9237;48.590;8.854;2023-06-19T03:42:53;0.60;;;0.60;;
18224;SDS011;9237;48.590;8.854;2023-06-19T03:45:19;0.60;;;0.60;;
18224;SDS011;9237;48.590;8.854;2023-06-19T03:47:46;0.50;;;0.50;;
18224;SDS011;9237;48.590;8.854;2023-06-19T03:50:13;0.60;;;0.60;;
18224;SDS011;9237;48.590;8.854;2023-06-19T03:52:39;0.50;;;0.50;;
18224;SDS011;9237;48.590;8.854;2023-06-19T03:55:06;0.60;;;0.60;;
18224;SDS011;9237;48.590;8.854;2023-06-19T03:57:35;0.50;;;0.50;;
18224;SDS011;9237;48.590;8.854;2023-06-19T04:00:02;0.57;;;0.57;;
18224;SDS011;9237;48.590;8.854;2023-06-19T04:02:32;0.60;;;0.60;;
18224;SDS011;9237;48.590;8.854;2023-06-19T04:04:59;0.60;;;0.60;;
18224;SDS011;9237;48.590;8.854;2023-06-19T04:07:26;0.57;;;0.57;;
18224;SDS011;9237;48.590;8.854;2023-06-19T04:09:53;0.60;;;0.60;;
18224;SDS011;9237;48.590;8.854;2023-06-19T04:12:20;0.50;;;0.50;;
18224;SDS011;9237;48.590;8.854;2023-06-19T04:14:48;0.60;;;0.60;;
18224;SDS011;9237;48.590;8.854;2023-06-19T04:17:15;0.60;;;0.60;;
18224;SDS011;9237;48.590;8.854;2023-06-19T04:19:42;0.50;;;0.50;;
18224;SDS011;9237;48.590;8.854;2023-06-19T04:22:08;0.60;;;0.60;;
18224;SDS011;9237;48.590;8.854;2023-06-19T04:24:35;0.60;;;0.60;;
18224;SDS011;9237;48.590;8.854;2023-06-19T04:27:02;0.50;;;0.50;;
18224;SDS011;9237;48.590;8.854;2023-06-19T04:29:29;0.53;;;0.53;;
18224;SDS011;9237;48.590;8.854;2023-06-19T04:31:58;0.60;;;0.60;;
18224;SDS011;9237;48.590;8.854;2023-06-19T04:34:25;0.60;;;0.60;;
18224;SDS011;9237;48.590;8.854;2023-06-19T04:36:52;0.60;;;0.60;;
18224;SDS011;9237;48.590;8.854;2023-06-19T04:39:18;0.60;;;0.60;;
18224;SDS011;9237;48.590;8.854;2023-06-19T04:41:46;0.50;;;0.50;;
18224;SDS011;9237;48.590;8.854;2023-06-19T04:44:12;0.50;;;0.50;;
18224;SDS011;9237;48.590;8.854;2023-06-19T04:46:40;0.50;;;0.50;;
18224;SDS011;9237;48.590;8.854;2023-06-19T04:49:08;0.60;;;0.60;;
18224;SDS011;9237;48.590;8.854;2023-06-19T04:51:35;0.60;;;0.60;;
18224;SDS011;9237;48.590;8.854;2023-06-19T04:54:02;0.50;;;0.50;;
18224;SDS011;9237;48.590;8.854;2023-06-19T04:56:29;0.60;;;0.60;;
18224;SDS011;9237;48.590;8.854;2023-06-19T04:58:55;0.50;;;0.50;;
18224;SDS011;9237;48.590;8.854;2023-06-19T05:01:24;0.50;;;0.50;;
18224;SDS011;9237;48.590;8.854;2023-06-19T05:03:53;0.50;;;0.50;;
18224;SDS011;9237;48.590;8.854;2023-06-19T05:06:22;0.50;;;0.50;;
18224;SDS011;9237;48.590;8.854;2023-06-19T05:08:50;0.50;;;0.50;;
18224;SDS011;9237;48.590;8.854;2023-06-19T05:11:17;0.50;;;0.50;;
18224;SDS011;9237;48.590;8.854;2023-06-19T05:13:44;0.50;;;0.50;;
18224;SDS011;9237;48.590;8.854;2023-06-19T05:16:11;0.50;;;0.50;;
18224;SDS011;9237;48.590;8.854;2023-06-19T05:18:41;0.50;;;0.50;;
18224;SDS011;9237;48.590;8.854;2023-06-19T05:21:08;0.50;;;0.50;;
18224;SDS011;9237;48.590;8.854;2023-06-19T05:23:36;0.50;;;0.50;;
18224;SDS011;9237;48.590;8.854;2023-06-19T05:26:03;0.50;;;0.50;;
18224;SDS011;9237;48.590;8.854;2023-06-19T05:28:30;0.50;;;0.50;;
18224;SDS011;9237;48.590;8.854;2023-06-19T05:30:56;0.50;;;0.50;;
18224;SDS011;9237;48.590;8.854;2023-06-19T05:33:23;0.50;;;0.50;;
18224;SDS011;9237;48.590;8.854;2023-06-19T05:35:50;0.50;;;0.50;;
18224;SDS011;9237;48.590;8.854;2023-06-19T05:38:18;0.50;;;0.50;;
18224;SDS011;9237;48.590;8.854;2023-06-19T05:40:47;0.50;;;0.50;;
18224;SDS011;9237;48.590;8.854;2023-06-19T05:43:14;0.50;;;0.50;;
18224;SDS011;9237;48.590;8.854;2023-06-19T05:45:40;0.50;;;0.50;;
18224;SDS011;9237;48.590;8.854;2023-06-19T05:48:07;0.60;;;0.60;;
18224;SDS011;9237;48.590;8.854;2023-06-19T05:50:34;0.50;;;0.50;;
18224;SDS011;9237;48.590;8.854;2023-06-19T05:53:01;0.50;;;0.50;;
18224;SDS011;9237;48.590;8.854;2023-06-19T05:55:27;0.50;;;0.50;;
18224;SDS011;9237;48.590;8.854;2023-06-19T05:57:56;0.50;;;0.50;;
18224;SDS011;9237;48.590;8.854;2023-06-19T06:00:23;0.50;;;0.50;;
18224;SDS011;9237;48.590;8.854;2023-06-19T06:02:50;0.50;;;0.50;;
18224;SDS011;9237;48.590;8.854;2023-06-19T06:05:16;0.50;;;0.50;;
18224;SDS011;9237;48.590;8.854;2023-06-19T06:07:44;0.50;;;0.50;;
18224;SDS011;9237;48.590;8.854;2023-06-19T06:10:10;0.50;;;0.50;;
18224;SDS011;9237;48.590;8.854;2023-06-19T06:12:38;0.50;;;0.50;;
18224;SDS011;9237;48.590;8.854;2023-06-19T06:15:07;0.50;;;0.50;;
18224;SDS011;9237;48.590;8.854;2023-06-19T06:17:34;0.50;;;0.50;;
18224;SDS011;9237;48.590;8.854;2023-06-19T06:20:01;0.50;;;0.50;;
18224;SDS011;9237;48.590;8.854;2023-06-19T06:22:31;0.50;;;0.50;;
18224;SDS011;9237;48.590;8.854;2023-06-19T06:24:58;0.50;;;0.50;;
18224;SDS011;9237;48.590;8.854;2023-06-19T06:27:25;0.50;;;0.50;;
18224;SDS011;9237;48.590;8.854;2023-06-19T06:29:52;0.50;;;0.50;;
18224;SDS011;9237;48.590;8.854;2023-06-19T06:32:20;0.50;;;0.50;;
18224;SDS011;9237;48.590;8.854;2023-06-19T06:34:47;0.50;;;0.50;;
18224;SDS011;9237;48.590;8.854;2023-06-19T06:37:14;0.50;;;0.50;;
18224;SDS011;9237;48.590;8.854;2023-06-19T06:39:42;0.50;;;0.50;;
18224;SDS011;9237;48.590;8.854;2023-06-19T06:42:09;0.50;;;0.50;;
18224;SDS011;9237;48.590;8.854;2023-06-19T06:44:36;0.45;;;0.45;;
18224;SDS011;9237;48.590;8.854;2023-06-19T06:47:03;0.50;;;0.50;;
18224;SDS011;9237;48.590;8.854;2023-06-19T06:49:31;0.50;;;0.50;;
18224;SDS011;9237;48.590;8.854;2023-06-19T06:51:58;0.50;;;0.50;;
18224;SDS011;9237;48.590;8.854;2023-06-19T06:54:25;0.50;;;0.50;;
18224;SDS011;9237;48.590;8.854;2023-06-19T06:56:52;0.50;;;0.50;;
18224;SDS011;9237;48.590;8.854;2023-06-19T06:59:21;0.50;;;0.50;;
18224;SDS011;9237;48.590;8.854;2023-06-19T07:01:48;0.40;;;0.40;;
18224;SDS011;9237;48.590;8.854;2023-06-19T07:04:14;0.40;;;0.40;;
18224;SDS011;9237;48.590;8.854;2023-06-19T07:06:43;0.40;;;0.40;;
18224;SDS011;9237;48.590;8.854;2023-06-19T07:09:09;0.40;;;0.40;;
18224;SDS011;9237;48.590;8.854;2023-06-19T07:11:36;0.40;;;0.40;;
18224;SDS011;9237;48.590;8.854;2023-06-19T07:14:03;0.40;;;0.40;;
18224;SDS011;9237;48.590;8.854;2023-06-19T07:16:30;0.40;;;0.40;;
18224;SDS011;9237;48.590;8.854;2023-06-19T07:18:56;0.40;;;0.40;;
18224;SDS011;9237;48.590;8.854;2023-06-19T07:21:23;0.40;;;0.40;;
18224;SDS011;9237;48.590;8.854;2023-06-19T07:23:51;0.35;;;0.35;;
18224;SDS011;9237;48.590;8.854;2023-06-19T07:26:18;0.40;;;0.40;;
18224;SDS011;9237;48.590;8.854;2023-06-19T07:28:45;0.40;;;0.40;;
18224;SDS011;9237;48.590;8.854;2023-06-19T07:31:12;0.40;;;0.40;;
18224;SDS011;9237;48.590;8.854;2023-06-19T07:33:38;0.30;;;0.30;;
18224;SDS011;9237;48.590;8.854;2023-06-19T07:36:05;0.40;;;0.40;;
18224;SDS011;9237;48.590;8.854;2023-06-19T07:38:33;0.30;;;0.30;;
18224;SDS011;9237;48.590;8.854;2023-06-19T07:41:01;0.30;;;0.30;;
18224;SDS011;9237;48.590;8.854;2023-06-19T07:43:28;0.30;;;0.30;;
18224;SDS011;9237;48.590;8.854;2023-06-19T07:45:55;0.30;;;0.30;;
18224;SDS011;9237;48.590;8.854;2023-06-19T07:48:22;0.35;;;0.35;;
18224;SDS011;9237;48.590;8.854;2023-06-19T07:50:49;0.30;;;0.30;;
18224;SDS011;9237;48.590;8.854;2023-06-19T07:53:16;0.40;;;0.40;;
18224;SDS011;9237;48.590;8.854;2023-06-19T07:55:42;0.30;;;0.30;;
18224;SDS011;9237;48.590;8.854;2023-06-19T07:58:11;0.30;;;0.30;;
18224;SDS011;9237;48.590;8.854;2023-06-19T08:00:37;0.40;;;0.40;;
18224;SDS011;9237;48.590;8.854;2023-06-19T08:03:04;0.30;;;0.30;;
18224;SDS011;9237;48.590;8.854;2023-06-19T08:05:31;0.30;;;0.30;;
18224;SDS011;9237;48.590;8.854;2023-06-19T08:07:58;0.40;;;0.40;;
18224;SDS011;9237;48.590;8.854;2023-06-19T08:10:26;0.40;;;0.40;;
18224;SDS011;9237;48.590;8.854;2023-06-19T08:12:53;0.40;;;0.40;;
18224;SDS011;9237;48.590;8.854;2023-06-19T08:15:21;0.40;;;0.40;;
18224;SDS011;9237;48.590;8.854;2023-06-19T08:17:48;0.40;;;0.40;;
18224;SDS011;9237;48.590;8.854;2023-06-19T08:20:15;0.40;;;0.40;;
18224;SDS011;9237;48.590;8.854;2023-06-19T08:22:41;0.40;;;0.40;;
18224;SDS011;9237;48.590;8.854;2023-06-19T08:25:08;0.40;;;0.40;;
18224;SDS011;9237;48.590;8.854;2023-06-19T08:27:35;0.40;;;0.40;;
18224;SDS011;9237;48.590;8.854;2023-06-19T08:30:02;0.40;;;0.40;;
18224;SDS011;9237;48.590;8.854;2023-06-19T08:32:30;0.40;;;0.40;;
18224;SDS011;9237;48.590;8.854;2023-06-19T08:34:58;0.40;;;0.40;;
18224;SDS011;9237;48.590;8.854;2023-06-19T08:37:24;0.40;;;0.40;;
18224;SDS011;9237;48.590;8.854;2023-06-19T08:39:52;0.30;;;0.30;;
18224;SDS011;9237;48.590;8.854;2023-06-19T08:42:20;0.40;;;0.40;;
18224;SDS011;9237;48.590;8.854;2023-06-19T08:44:48;0.40;;;0.40;;
18224;SDS011;9237;48.590;8.854;2023-06-19T08:47:15;0.30;;;0.30;;
18224;SDS011;9237;48.590;8.854;2023-06-19T08:49:43;0.40;;;0.40;;
18224;SDS011;9237;48.590;8.854;2023-06-19T08:52:10;0.30;;;0.30;;
18224;SDS011;9237;48.590;8.854;2023-06-19T08:54:37;0.30;;;0.30;;
18224;SDS011;9237;48.590;8.854;2023-06-19T08:57:09;0.30;;;0.30;;
18224;SDS011;9237;48.590;8.854;2023-06-19T08:59:36;0.20;;;0.20;;
18224;SDS011;9237;48.590;8.854;2023-06-19T09:02:03;0.30;;;0.30;;
18224;SDS011;9237;48.590;8.854;2023-06-19T09:04:31;0.30;;;0.30;;
18224;SDS011;9237;48.590;8.854;2023-06-19T09:07:00;0.20;;;0.20;;
18224;SDS011;9237;48.590;8.854;2023-06-19T09:09:28;0.20;;;0.20;;
18224;SDS011;9237;48.590;8.854;2023-06-19T09:12:00;0.20;;;0.20;;
18224;SDS011;9237;48.590;8.854;2023-06-19T09:14:31;0.20;;;0.20;;
18224;SDS011;9237;48.590;8.854;2023-06-19T09:16:59;0.20;;;0.20;;
18224;SDS011;9237;48.590;8.854;2023-06-19T09:19:26;0.20;;;0.20;;
18224;SDS011;9237;48.590;8.854;2023-06-19T09:22:00;0.20;;;0.20;;
18224;SDS011;9237;48.590;8.854;2023-06-19T09:24:32;0.20;;;0.20;;
18224;SDS011;9237;48.590;8.854;2023-06-19T09:27:05;0.20;;;0.20;;
18224;SDS011;9237;48.590;8.854;2023-06-19T09:29:35;0.20;;;0.20;;
18224;SDS011;9237;48.590;8.854;2023-06-19T09:32:13;0.20;;;0.20;;
18224;SDS011;9237;48.590;8.854;2023-06-19T09:34:40;0.20;;;0.20;;
18224;SDS011;9237;48.590;8.854;2023-06-19T09:37:09;0.20;;;0.20;;
18224;SDS011;9237;48.590;8.854;2023-06-19T09:39:36;0.20;;;0.20;;
18224;SDS011;9237;48.590;8.854;2023-06-19T09:42:04;0.20;;;0.20;;
18224;SDS011;9237;48.590;8.854;2023-06-19T09:44:37;0.20;;;0.20;;
18224;SDS011;9237;48.590;8.854;2023-06-19T09:47:07;0.20;;;0.20;;
18224;SDS011;9237;48.590;8.854;2023-06-19T09:49:42;0.20;;;0.20;;
18224;SDS011;9237;48.590;8.854;2023-06-19T09:52:16;0.20;;;0.20;;
18224;SDS011;9237;48.590;8.854;2023-06-19T09:54:44;0.20;;;0.20;;
18224;SDS011;9237;48.590;8.854;2023-06-19T09:57:12;0.20;;;0.20;;
18224;SDS011;9237;48.590;8.854;2023-06-19T09:59:39;0.20;;;0.20;;
18224;SDS011;9237;48.590;8.854;2023-06-19T10:02:07;0.10;;;0.10;;
18224;SDS011;9237;48.590;8.854;2023-06-19T10:04:41;0.10;;;0.10;;
18224;SDS011;9237;48.590;8.854;2023-06-19T10:07:16;0.20;;;0.20;;
18224;SDS011;9237;48.590;8.854;2023-06-19T10:09:54;0.20;;;0.20;;
18224;SDS011;9237;48.590;8.854;2023-06-19T10:12:34;0.10;;;0.10;;
18224;SDS011;9237;48.590;8.854;2023-06-19T10:15:08;0.15;;;0.15;;
18224;SDS011;9237;48.590;8.854;2023-06-19T10:17:36;0.20;;;0.20;;
18224;SDS011;9237;48.590;8.854;2023-06-19T10:20:04;0.20;;;0.20;;
18224;SDS011;9237;48.590;8.854;2023-06-19T10:22:49;0.20;;;0.20;;
18224;SDS011;9237;48.590;8.854;2023-06-19T10:25:22;0.10;;;0.10;;
18224;SDS011;9237;48.590;8.854;2023-06-19T10:27:49;0.20;;;0.20;;
18224;SDS011;9237;48.590;8.854;2023-06-19T10:30:17;0.20;;;0.20;;
18224;SDS011;9237;48.590;8.854;2023-06-19T10:32:45;0.20;;;0.20;;
18224;SDS011;9237;48.590;8.854;2023-06-19T10:35:12;0.10;;;0.10;;
18224;SDS011;9237;48.590;8.854;2023-06-19T10:37:42;0.20;;;0.20;;
18224;SDS011;9237;48.590;8.854;2023-06-19T10:40:10;0.10;;;0.10;;
18224;SDS011;9237;48.590;8.854;2023-06-19T10:42:37;0.20;;;0.20;;
18224;SDS011;9237;48.590;8.854;2023-06-19T10:45:05;0.20;;;0.20;;
18224;SDS011;9237;48.590;8.854;2023-06-19T10:47:34;0.20;;;0.20;;
18224;SDS011;9237;48.590;8.854;2023-06-19T10:50:01;0.20;;;0.20;;
18224;SDS011;9237;48.590;8.854;2023-06-19T10:52:28;0.20;;;0.20;;
18224;SDS011;9237;48.590;8.854;2023-06-19T10:54:57;0.20;;;0.20;;
18224;SDS011;9237;48.590;8.854;2023-06-19T10:57:27;0.20;;;0.20;;
18224;SDS011;9237;48.590;8.854;2023-06-19T10:59:54;0.20;;;0.20;;
18224;SDS011;9237;48.590;8.854;2023-06-19T11:02:21;0.20;;;0.20;;
18224;SDS011;9237;48.590;8.854;2023-06-19T11:04:51;0.17;;;0.17;;
18224;SDS011;9237;48.590;8.854;2023-06-19T11:07:19;0.10;;;0.10;;
18224;SDS011;9237;48.590;8.854;2023-06-19T11:09:47;0.20;;;0.20;;
18224;SDS011;9237;48.590;8.854;2023-06-19T11:12:19;0.10;;;0.10;;
18224;SDS011;9237;48.590;8.854;2023-06-19T11:14:47;0.20;;;0.20;;
18224;SDS011;9237;48.590;8.854;2023-06-19T11:17:14;0.20;;;0.20;;
18224;SDS011;9237;48.590;8.854;2023-06-19T11:19:43;0.20;;;0.20;;
18224;SDS011;9237;48.590;8.854;2023-06-19T11:22:10;0.20;;;0.20;;
18224;SDS011;9237;48.590;8.854;2023-06-19T11:24:37;0.20;;;0.20;;
18224;SDS011;9237;48.590;8.854;2023-06-19T11:27:13;0.20;;;0.20;;
18224;SDS011;9237;48.590;8.854;2023-06-19T11:29:44;0.20;;;0.20;;
18224;SDS011;9237;48.590;8.854;2023-06-19T11:32:12;0.20;;;0.20;;
18224;SDS011;9237;48.590;8.854;2023-06-19T11:34:41;0.20;;;0.20;;
18224;SDS011;9237;48.590;8.854;2023-06-19T11:37:12;0.20;;;0.20;;
18224;SDS011;9237;48.590;8.854;2023-06-19T11:39:39;0.20;;;0.20;;
18224;SDS011;9237;48.590;8.854;2023-06-19T11:42:07;0.20;;;0.20;;
18224;SDS011;9237;48.590;8.854;2023-06-19T11:44:34;0.20;;;0.20;;
18224;SDS011;9237;48.590;8.854;2023-06-19T11:47:02;0.20;;;0.20;;
18224;SDS011;9237;48.590;8.854;2023-06-19T11:49:34;0.20;;;0.20;;
18224;SDS011;9237;48.590;8.854;2023-06-19T11:52:01;0.20;;;0.20;;
18224;SDS011;9237;48.590;8.854;2023-06-19T11:54:28;0.20;;;0.20;;
18224;SDS011;9237;48.590;8.854;2023-06-19T11:56:55;0.10;;;0.10;;
18224;SDS011;9237;48.590;8.854;2023-06-19T11:59:22;0.20;;;0.20;;
18224;SDS011;9237;48.590;8.854;2023-06-19T12:01:49;0.20;;;0.20;;
18224;SDS011;9237;48.590;8.854;2023-06-19T12:04:17;0.15;;;0.15;;
18224;SDS011;9237;48.590;8.854;2023-06-19T12:06:44;0.20;;;0.20;;
18224;SDS011;9237;48.590;8.854;2023-06-19T12:09:11;0.20;;;0.20;;
18224;SDS011;9237;48.590;8.854;2023-06-19T12:11:37;0.20;;;0.20;;
18224;SDS011;9237;48.590;8.854;2023-06-19T12:14:04;0.20;;;0.20;;
18224;SDS011;9237;48.590;8.854;2023-06-19T12:16:31;0.20;;;0.20;;
18224;SDS011;9237;48.590;8.854;2023-06-19T12:18:58;0.20;;;0.20;;
18224;SDS011;9237;48.590;8.854;2023-06-19T12:21:26;0.20;;;0.20;;
18224;SDS011;9237;48.590;8.854;2023-06-19T12:23:53;0.20;;;0.20;;
18224;SDS011;9237;48.590;8.854;2023-06-19T12:26:20;0.20;;;0.20;;
18224;SDS011;9237;48.590;8.854;2023-06-19T12:28:49;0.20;;;0.20;;
18224;SDS011;9237;48.590;8.854;2023-06-19T12:31:16;0.20;;;0.20;;
18224;SDS011;9237;48.590;8.854;2023-06-19T12:33:43;0.20;;;0.20;;
18224;SDS011;9237;48.590;8.854;2023-06-19T12:36:12;0.20;;;0.20;;
18224;SDS011;9237;48.590;8.854;2023-06-19T12:38:41;0.20;;;0.20;;
18224;SDS011;9237;48.590;8.854;2023-06-19T12:41:08;0.20;;;0.20;;
18224;SDS011;9237;48.590;8.854;2023-06-19T12:43:35;0.20;;;0.20;;
18224;SDS011;9237;48.590;8.854;2023-06-19T12:46:01;0.20;;;0.20;;
18224;SDS011;9237;48.590;8.854;2023-06-19T12:48:28;0.22;;;0.22;;
18224;SDS011;9237;48.590;8.854;2023-06-19T12:50:55;0.28;;;0.28;;
18224;SDS011;9237;48.590;8.854;2023-06-19T12:53:22;0.20;;;0.20;;
18224;SDS011;9237;48.590;8.854;2023-06-19T12:55:53;0.22;;;0.22;;
18224;SDS011;9237;48.590;8.854;2023-06-19T12:58:19;0.30;;;0.30;;
18224;SDS011;9237;48.590;8.854;2023-06-19T13:00:46;0.20;;;0.20;;
18224;SDS011;9237;48.590;8.854;2023-06-19T13:03:13;0.30;;;0.30;;
18224;SDS011;9237;48.590;8.854;2023-06-19T13:05:40;0.20;;;0.20;;
18224;SDS011;9237;48.590;8.854;2023-06-19T13:08:07;0.20;;;0.20;;
18224;SDS011;9237;48.590;8.854;2023-06-19T13:10:33;0.20;;;0.20;;
18224;SDS011;9237;48.590;8.854;2023-06-19T13:13:02;0.20;;;0.20;;
18224;SDS011;9237;48.590;8.854;2023-06-19T13:15:30;0.20;;;0.20;;
18224;SDS011;9237;48.590;8.854;2023-06-19T13:17:58;0.20;;;0.20;;
18224;SDS011;9237;48.590;8.854;2023-06-19T13:20:25;0.20;;;0.20;;
18224;SDS011;9237;48.590;8.854;2023-06-19T13:22:52;0.20;;;0.20;;
18224;SDS011;9237;48.590;8.854;2023-06-19T13:25:19;0.20;;;0.20;;
18224;SDS011;9237;48.590;8.854;2023-06-19T13:27:46;0.20;;;0.20;;
18224;SDS011;9237;48.590;8.854;2023-06-19T13:30:14;0.20;;;0.20;;
18224;SDS011;9237;48.590;8.854;2023-06-19T13:32:41;0.20;;;0.20;;
18224;SDS011;9237;48.590;8.854;2023-06-19T13:35:08;0.20;;;0.20;;
18224;SDS011;9237;48.590;8.854;2023-06-19T13:37:37;0.20;;;0.20;;
18224;SDS011;9237;48.590;8.854;2023-06-19T13:40:05;0.20;;;0.20;;
18224;SDS011;9237;48.590;8.854;2023-06-19T13:42:33;0.20;;;0.20;;
18224;SDS011;9237;48.590;8.854;2023-06-19T13:45:00;0.20;;;0.20;;
18224;SDS011;9237;48.590;8.854;2023-06-19T13:47:29;0.20;;;0.20;;
18224;SDS011;9237;48.590;8.854;2023-06-19T13:49:56;0.20;;;0.20;;
18224;SDS011;9237;48.590;8.854;2023-06-19T13:52:22;0.20;;;0.20;;
18224;SDS011;9237;48.590;8.854;2023-06-19T13:54:49;0.20;;;0.20;;
18224;SDS011;9237;48.590;8.854;2023-06-19T13:57:16;0.20;;;0.20;;
18224;SDS011;9237;48.590;8.854;2023-06-19T13:59:43;0.20;;;0.20;;
18224;SDS011;9237;48.590;8.854;2023-06-19T14:02:10;0.20;;;0.20;;
18224;SDS011;9237;48.590;8.854;2023-06-19T14:04:38;0.20;;;0.20;;
18224;SDS011;9237;48.590;8.854;2023-06-19T14:07:05;0.20;;;0.20;;
18224;SDS011;9237;48.590;8.854;2023-06-19T14:09:33;0.20;;;0.20;;
18224;SDS011;9237;48.590;8.854;2023-06-19T14:11:59;0.20;;;0.20;;
18224;SDS011;9237;48.590;8.854;2023-06-19T14:14:26;0.20;;;0.20;;
18224;SDS011;9237;48.590;8.854;2023-06-19T14:16:53;0.28;;;0.28;;
18224;SDS011;9237;48.590;8.854;2023-06-19T14:19:20;0.20;;;0.20;;
18224;SDS011;9237;48.590;8.854;2023-06-19T14:21:49;0.20;;;0.20;;
18224;SDS011;9237;48.590;8.854;2023-06-19T14:24:17;0.20;;;0.20;;
18224;SDS011;9237;48.590;8.854;2023-06-19T14:26:44;0.20;;;0.20;;
18224;SDS011;9237;48.590;8.854;2023-06-19T14:29:11;0.22;;;0.22;;
18224;SDS011;9237;48.590;8.854;2023-06-19T14:31:40;0.20;;;0.20;;
18224;SDS011;9237;48.590;8.854;2023-06-19T14:34:06;0.20;;;0.20;;
18224;SDS011;9237;48.590;8.854;2023-06-19T14:36:33;0.20;;;0.20;;
18224;SDS011;9237;48.590;8.854;2023-06-19T14:39:01;0.30;;;0.30;;
18224;SDS011;9237;48.590;8.854;2023-06-19T14:41:28;0.20;;;0.20;;
18224;SDS011;9237;48.590;8.854;2023-06-19T14:43:55;0.20;;;0.20;;
18224;SDS011;9237;48.590;8.854;2023-06-19T14:46:22;0.20;;;0.20;;
18224;SDS011;9237;48.590;8.854;2023-06-19T14:48:49;0.20;;;0.20;;
18224;SDS011;9237;48.590;8.854;2023-06-19T14:51:15;0.20;;;0.20;;
18224;SDS011;9237;48.590;8.854;2023-06-19T14:53:42;0.20;;;0.20;;
18224;SDS011;9237;48.590;8.854;2023-06-19T14:56:10;0.20;;;0.20;;
18224;SDS011;9237;48.590;8.854;2023-06-19T14:58:37;0.20;;;0.20;;
18224;SDS011;9237;48.590;8.854;2023-06-19T15:01:04;0.20;;;0.20;;
18224;SDS011;9237;48.590;8.854;2023-06-19T15:03:31;0.20;;;0.20;;